TLSO2: Arkansas River, Tulsa, OK

                                SHEF ID:       TLSO2     Arkansas River at Tulsa, OK
STATION TYPE: Stream Gauge
Regulating: Stage = 15.00, Flow = 96489

PRECIP STAGE STAGE(2) RIV-FLOW WTR-TEMP DIS-OXY BAT-LOAD
in ft ft cfs F mg/l volt
Ccp-Rev Ccp-Rev Ccp-Rev Ccp-Rev Ccp-Rev Ccp-Rev Ccp-Rev
(America/Chicago)
02/08 00:00 0.00 4.65 ---- 6505 44.83 13.68 ----
02/08 01:00 0.00 4.66 ---- 6559 45.00 13.72 ----
02/08 02:00 0.00 4.58 ---- 6123 45.03 13.71 ----
02/08 03:00 0.00 4.57 ---- 6068 44.94 13.64 ----
02/08 04:00 0.00 4.54 ---- 5903 44.26 13.14 ----
02/08 05:00 0.00 4.52 ---- 5795 43.93 12.73 ----
02/08 06:00 0.00 4.52 ---- 5795 43.11 12.57 ----
02/08 07:00 0.00 4.51 ---- 5741 42.80 12.34 ----
02/08 08:00 0.00 4.45 ---- 5425 43.54 12.38 ----
02/08 09:00 0.00 4.41 ---- 5219 42.40 12.01 ----
02/08 10:00 0.00 4.47 ---- 5529 42.62 12.07 ----
02/08 11:00 0.00 4.44 ---- 5373 42.93 12.17 ----
02/08 12:00 0.00 4.44 ---- 5373 43.20 12.64 ----
02/08 13:00 0.00 4.45 ---- 5425 43.29 13.12 ----
02/08 14:00 0.00 4.40 ---- 5169 44.02 14.36 ----
02/08 15:00 0.00 4.39 ---- 5118 44.73 14.51 ----
02/08 16:00 0.00 4.36 ---- 4969 45.41 13.82 ----
02/08 17:00 0.00 4.34 ---- 4871 45.55 14.48 ----
02/08 18:00 0.00 4.29 ---- 4631 45.88 15.09 ----
02/08 19:00 0.00 4.32 ---- 4774 45.79 15.06 ----
02/08 20:00 0.00 4.36 ---- 4969 45.77 14.40 ----
02/08 21:00 0.00 4.38 ---- 5068 45.79 14.67 ----
02/08 22:00 0.00 4.41 ---- 5219 45.86 11.05 ----
02/08 23:00 0.00 4.42 ---- 5270 45.88 9.81 ----
Data processed at Mon 09Feb2026 05:48 GMT

NOTICE: If you are parsing this page

Please convert to using our Data API. Starting early 2026 we will be migrating to: https://water.usace.army.mil with modern pages rendered in JavaScript. When this migration completes you will no longer be able to scrape this page! CWMSDataAPI (CDA)

Timeseries IDs (TSIDs)

TSIDs used from left to right in the data table
TULA.Precip-Inc.Total.1Hour.1Hour.Ccp-Rev
TULA.Stage.Inst.1Hour.0.Ccp-Rev
TULA.Stage-Alt.Inst.1Hour.0.Ccp-Rev
TULA.Flow.Inst.1Hour.0.Ccp-Rev
TULA.Temp-Water.Inst.1Hour.0.Ccp-Rev
TULA.Conc-DO.Inst.1Hour.0.Ccp-Rev
TULA.Volt-Battery Load.Inst.1Hour.0.Ccp-Rev

                            

All information presented herein is the property of the government of the United States of America and may be revised or deleted at any time without prior notice. Dissemination of this information without the expressed written consent of the Public Affairs Office, Tulsa District U.S. Army Corps of Engineers is strictly prohibited. These data are gathered electronically and, as presented, have NOT undergone any form of quality control. These data are NOT guaranteed to be valid or correct.